Time;durP1;ratioP1;P1;durP2;ratioP2;P2;SDS_P1;SDS_P2;PMS_P1;PMS_P2;Temp;Humidity;BMP_temperature;BMP_pressure;BME280_temperature;BME280_humidity;BME280_pressure;Samples;Min_cycle;Max_cycle;Signal;HPM_P1;HPM_P2
2021/05/18 00:02:25;;;;;;;15.45;13.95;;;11.80;99.90;;;;;;5011801;28;20200;-41
2021/05/18 00:04:53;;;;;;;15.38;12.77;;;11.70;99.90;;;;;;5011088;28;20227;-38
2021/05/18 00:07:21;;;;;;;14.82;13.32;;;11.70;99.90;;;;;;5011411;28;20638;-37
2021/05/18 00:12:34;;;;;;;19.38;15.23;;;11.80;99.90;;;;;;5011539;28;20280;-37
2021/05/18 00:15:03;;;;;;;17.83;16.05;;;11.70;99.90;;;;;;5011687;28;20284;-38
2021/05/18 00:17:30;;;;;;;15.02;13.57;;;11.80;99.90;;;;;;5011299;28;20224;-38
2021/05/18 00:19:57;;;;;;;15.82;13.32;;;11.90;99.90;;;;;;5010870;28;20682;-38
2021/05/18 00:22:24;;;;;;;14.82;13.32;;;11.80;99.90;;;;;;5011278;28;20208;-39
2021/05/18 00:24:50;;;;;;;15.55;13.95;;;11.70;99.90;;;;;;5011047;28;20216;-37
2021/05/18 00:27:19;;;;;;;13.88;12.38;;;11.80;99.90;;;;;;5011316;28;20790;-38
2021/05/18 00:29:46;;;;;;;20.25;15.32;;;11.90;99.90;;;;;;5010707;28;20220;-37
2021/05/18 00:32:12;;;;;;;17.02;15.23;;;11.80;99.90;;;;;;5010810;28;20200;-39
2021/05/18 00:34:39;;;;;;;24.60;19.88;;;11.30;99.90;;;;;;5011372;28;20211;-37
2021/05/18 00:37:07;;;;;;;19.58;17.48;;;11.40;99.90;;;;;;5011271;28;20255;-38
2021/05/18 00:39:34;;;;;;;20.98;18.10;;;11.40;99.90;;;;;;5008999;28;20196;-37
2021/05/18 00:42:00;;;;;;;25.77;19.20;;;11.60;99.90;;;;;;5011170;28;20212;-39
2021/05/18 00:44:27;;;;;;;27.25;21.45;;;11.60;99.90;;;;;;5010950;28;20197;-37
2021/05/18 00:46:54;;;;;;;21.42;18.00;;;11.40;99.90;;;;;;5010609;28;20325;-38
2021/05/18 00:49:21;;;;;;;25.45;18.88;;;11.40;99.90;;;;;;5009492;28;20234;-39
2021/05/18 00:51:48;;;;;;;22.63;19.33;;;11.40;99.90;;;;;;5011000;28;20200;-37
2021/05/18 00:54:22;;;;;;;23.23;19.83;;;11.40;99.90;;;;;;5009692;28;20200;-39
2021/05/18 00:59:36;;;;;;;25.23;19.60;;;11.30;99.90;;;;;;5009041;28;20727;-37
2021/05/18 01:02:03;;;;;;;22.67;18.73;;;11.20;99.90;;;;;;5010801;28;20200;-38
2021/05/18 01:04:30;;;;;;;22.17;19.08;;;11.20;99.90;;;;;;5011012;28;20193;-38
2021/05/18 01:06:56;;;;;;;23.30;17.48;;;11.30;99.90;;;;;;5010795;28;20299;-39
2021/05/18 01:09:24;;;;;;;21.35;18.33;;;11.20;99.90;;;;;;5009944;28;20216;-39
2021/05/18 01:11:50;;;;;;;20.25;16.90;;;11.20;99.90;;;;;;5009929;28;20203;-39
2021/05/18 01:14:19;;;;;;;21.27;18.75;;;11.20;99.90;;;;;;5010698;28;20204;-38
2021/05/18 01:16:47;;;;;;;20.13;17.17;;;11.10;99.90;;;;;;5010388;28;20702;-37
2021/05/18 01:19:16;;;;;;;22.42;17.05;;;10.90;99.90;;;;;;5008931;28;20541;-37
2021/05/18 01:21:45;;;;;;;23.85;18.42;;;10.90;99.90;;;;;;4990789;28;20201;-38
2021/05/18 01:24:14;;;;;;;24.45;18.98;;;10.90;99.90;;;;;;4989263;28;20441;-39
2021/05/18 01:26:46;;;;;;;26.73;19.40;;;10.80;99.90;;;;;;4990877;28;20225;-37
2021/05/18 01:29:14;;;;;;;26.95;18.67;;;10.70;99.90;;;;;;4990712;28;20205;-37
2021/05/18 01:31:44;;;;;;;20.95;18.75;;;10.50;99.90;;;;;;4991050;28;20233;-38
2021/05/18 01:34:11;;;;;;;23.35;17.50;;;10.60;99.90;;;;;;4989826;28;20224;-37
2021/05/18 01:36:44;;;;;;;23.80;17.55;;;10.70;99.90;;;;;;4989779;28;20688;-37
2021/05/18 01:39:47;;;;;;;22.58;20.17;;;10.70;99.90;;;;;;4990608;28;20204;-37
2021/05/18 01:45:08;;;;;;;30.80;19.33;;;10.80;99.90;;;;;;4989692;28;20193;-40
2021/05/18 01:47:35;;;;;;;20.20;16.90;;;10.90;99.90;;;;;;4990880;28;20273;-37
2021/05/18 01:50:03;;;;;;;21.90;18.52;;;10.70;99.90;;;;;;4989016;28;20562;-37
2021/05/18 01:52:30;;;;;;;20.35;17.80;;;10.60;99.90;;;;;;4989629;28;20204;-38
2021/05/18 01:54:58;;;;;;;23.10;18.83;;;10.50;99.90;;;;;;4992869;28;20189;-38
2021/05/18 01:57:26;;;;;;;28.60;19.13;;;10.70;99.90;;;;;;5010321;28;20217;-38
2021/05/18 02:00:15;;;;;;;20.98;16.23;;;10.50;99.90;;;;;;5008913;28;20667;-39
2021/05/18 02:02:49;;;;;;;19.58;16.95;;;10.50;99.90;;;;;;5010020;28;20200;-38
2021/05/18 02:05:25;;;;;;;22.38;18.10;;;10.40;99.90;;;;;;5008965;28;20200;-39
2021/05/18 02:08:12;;;;;;;24.95;18.23;;;10.50;99.90;;;;;;5010693;28;20726;-40
2021/05/18 02:10:41;;;;;;;20.40;17.13;;;10.60;99.90;;;;;;5005532;28;20718;-38
2021/05/18 02:13:12;;;;;;;23.15;18.55;;;10.40;99.90;;;;;;5008996;28;20674;-37
2021/05/18 02:15:44;;;;;;;22.15;18.33;;;10.40;99.90;;;;;;5010739;28;20204;-37
2021/05/18 02:18:33;;;;;;;21.10;18.23;;;10.40;99.90;;;;;;5010702;28;20236;-38
2021/05/18 02:26:48;;;;;;;25.00;19.20;;;10.50;99.90;;;;;;5012846;28;20298;-41
2021/05/18 02:29:16;;;;;;;19.98;17.20;;;10.30;99.90;;;;;;5010567;28;20251;-37
2021/05/18 02:31:44;;;;;;;21.13;17.17;;;10.30;99.90;;;;;;5013918;28;20693;-38
2021/05/18 02:34:29;;;;;;;22.05;17.30;;;10.40;99.90;;;;;;5014199;28;20204;-37
2021/05/18 02:36:55;;;;;;;19.83;16.20;;;10.40;99.90;;;;;;5013985;28;20227;-39
2021/05/18 02:39:22;;;;;;;21.42;18.38;;;10.40;99.90;;;;;;5014877;28;20237;-37
2021/05/18 02:41:51;;;;;;;21.02;17.00;;;10.40;99.90;;;;;;5012434;28;20211;-39
2021/05/18 02:44:22;;;;;;;28.25;20.45;;;10.50;99.90;;;;;;5012222;28;20200;-39
2021/05/18 02:49:44;;;;;;;27.10;20.60;;;10.60;99.90;;;;;;4991967;28;20230;-39
2021/05/18 02:52:10;;;;;;;21.83;19.35;;;10.70;99.90;;;;;;4992777;28;20228;-37
2021/05/18 02:54:45;;;;;;;26.98;19.05;;;10.80;99.90;;;;;;4996320;28;20306;-38
2021/05/18 02:57:14;;;;;;;28.13;19.63;;;10.60;99.90;;;;;;5011590;28;20232;-37
2021/05/18 02:59:41;;;;;;;26.92;21.02;;;10.80;99.90;;;;;;4992902;28;20232;-38
2021/05/18 03:02:07;;;;;;;28.05;19.95;;;10.70;99.90;;;;;;4993255;28;20204;-38
2021/05/18 03:04:34;;;;;;;26.55;22.17;;;10.50;99.90;;;;;;4992096;28;20228;-38
2021/05/18 03:07:02;;;;;;;27.52;20.75;;;10.70;99.90;;;;;;5009242;28;20762;-37
2021/05/18 03:09:29;;;;;;;27.65;20.10;;;10.90;99.90;;;;;;5012382;28;20311;-38
2021/05/18 03:11:56;;;;;;;25.80;21.48;;;11.00;99.90;;;;;;5012731;28;20286;-37
2021/05/18 03:14:24;;;;;;;25.25;20.02;;;11.20;99.90;;;;;;5012638;28;20295;-38
2021/05/18 03:16:51;;;;;;;26.40;20.90;;;11.10;99.90;;;;;;5012635;28;20604;-38
2021/05/18 03:19:18;;;;;;;25.77;21.88;;;11.00;99.90;;;;;;5012221;28;20208;-37
2021/05/18 03:21:45;;;;;;;28.48;22.40;;;11.10;99.90;;;;;;5012361;28;20193;-38
2021/05/18 03:24:13;;;;;;;25.05;20.83;;;11.10;99.90;;;;;;5012383;28;20734;-39
2021/05/18 03:26:45;;;;;;;24.52;21.63;;;11.10;99.90;;;;;;5003243;28;20205;-37
2021/05/18 03:29:15;;;;;;;25.77;22.60;;;11.00;99.90;;;;;;4992824;28;20227;-37
2021/05/18 03:34:33;;;;;;;27.30;22.08;;;11.00;99.90;;;;;;4993006;28;20198;-38
2021/05/18 03:37:03;;;;;;;25.98;21.40;;;11.20;99.90;;;;;;4992922;28;20220;-38
2021/05/18 03:39:30;;;;;;;25.67;20.70;;;11.10;99.90;;;;;;4992260;28;20569;-39
2021/05/18 03:42:02;;;;;;;23.88;18.60;;;11.20;99.90;;;;;;4996462;28;20740;-39
2021/05/18 03:44:45;;;;;;;27.30;22.40;;;11.10;99.90;;;;;;5012162;28;20196;-37
2021/05/18 03:52:50;;;;;;;24.65;19.65;;;10.80;99.90;;;;;;5012301;28;20295;-37
2021/05/18 04:03:39;;;;;;;24.00;19.98;;;10.60;99.90;;;;;;5041525;22;20227;-81
2021/05/18 04:12:03;;;;;;;23.02;19.70;;;10.60;99.90;;;;;;5020714;28;20205;-80
2021/05/18 04:17:15;;;;;;;24.55;18.60;;;10.70;99.90;;;;;;5021013;28;20722;-81
2021/05/18 04:19:47;;;;;;;22.92;19.70;;;10.60;99.90;;;;;;5026407;28;20188;-80
2021/05/18 04:25:33;;;;;;;22.52;18.52;;;10.80;99.90;;;;;;4981469;28;20212;-81
2021/05/18 04:39:06;;;;;;;20.38;16.70;;;10.60;99.90;;;;;;5024265;28;20196;-82
2021/05/18 04:50:18;;;;;;;20.60;16.02;;;10.50;99.90;;;;;;5024176;28;20223;-81
2021/05/18 04:52:54;;;;;;;22.90;16.00;;;10.70;99.90;;;;;;5023216;28;20716;-81
2021/05/18 04:59:02;;;;;;;24.95;15.80;;;10.70;99.90;;;;;;5022982;28;20216;-81
2021/05/18 05:01:10;;;;;;;17.90;14.30;;;10.80;99.90;;;;;;5022344;28;20384;-81
2021/05/18 05:06:27;;;;;;;20.75;14.88;;;11.20;99.90;;;;;;5022113;28;20199;-81
2021/05/18 05:09:05;;;;;;;21.33;15.43;;;11.00;99.90;;;;;;5023267;28;20185;-82
2021/05/18 05:14:20;;;;;;;23.33;16.30;;;10.90;99.90;;;;;;5027228;28;20208;-83
2021/05/18 05:16:48;;;;;;;18.00;14.18;;;10.90;99.90;;;;;;5025844;28;20250;-82
2021/05/18 05:19:14;;;;;;;16.05;13.23;;;11.10;99.90;;;;;;5026630;28;20271;-83
2021/05/18 05:21:51;;;;;;;17.52;12.10;;;11.30;99.90;;;;;;5025634;28;20205;-83
2021/05/18 05:24:27;;;;;;;16.65;12.27;;;11.30;99.90;;;;;;5026713;28;20216;-82
2021/05/18 05:26:55;;;;;;;16.33;12.10;;;11.20;99.90;;;;;;5027365;28;20221;-82
2021/05/18 05:29:23;;;;;;;15.77;11.90;;;11.00;99.90;;;;;;5026312;28;20233;-82
2021/05/18 05:31:58;;;;;;;14.07;10.75;;;11.30;99.90;;;;;;5025682;28;20219;-81
2021/05/18 05:34:27;;;;;;;13.50;10.38;;;11.30;99.90;;;;;;5023119;28;20323;-82
2021/05/18 05:36:55;;;;;;;17.92;10.82;;;11.40;99.90;;;;;;5027355;28;20204;-83
2021/05/18 05:39:23;;;;;;;19.58;10.15;;;11.50;99.90;;;;;;5026444;28;20212;-83
2021/05/18 05:41:58;;;;;;;16.48;10.77;;;11.30;99.90;;;;;;5026945;28;20200;-83
2021/05/18 05:44:29;;;;;;;15.27;10.50;;;11.40;99.90;;;;;;5027683;28;20223;-83
2021/05/18 05:46:56;;;;;;;24.10;10.68;;;11.50;99.90;;;;;;5027020;28;20204;-83
2021/05/18 05:49:22;;;;;;;14.52;10.32;;;11.50;99.90;;;;;;5024472;28;20763;-82
2021/05/18 05:51:49;;;;;;;12.30;9.13;;;11.50;99.90;;;;;;5027497;28;20196;-83
2021/05/18 05:54:16;;;;;;;12.98;10.55;;;11.70;99.90;;;;;;5025891;28;20225;-83
2021/05/18 05:56:43;;;;;;;13.65;10.48;;;11.70;99.90;;;;;;5032097;28;20204;-83
2021/05/18 05:59:10;;;;;;;13.07;10.40;;;11.70;99.90;;;;;;5028458;28;20268;-83
2021/05/18 06:01:37;;;;;;;21.05;11.05;;;11.70;99.90;;;;;;5029248;28;20200;-82
2021/05/18 06:04:05;;;;;;;13.85;10.18;;;11.80;99.90;;;;;;5029015;28;20276;-82
2021/05/18 06:06:31;;;;;;;14.30;9.68;;;12.00;99.90;;;;;;5031001;28;20684;-82
2021/05/18 06:08:59;;;;;;;11.73;10.32;;;12.00;99.90;;;;;;5030266;28;20515;-83
2021/05/18 06:11:32;;;;;;;13.43;11.38;;;11.80;99.90;;;;;;5031790;28;20239;-82
2021/05/18 06:14:10;;;;;;;11.43;10.27;;;11.70;99.90;;;;;;5030936;28;20266;-83
2021/05/18 06:17:06;;;;;;;15.95;10.18;;;11.80;99.90;;;;;;5030050;28;20587;-82
2021/05/18 06:42:19;;;;;;;16.40;9.18;;;12.00;99.90;;;;;;5030378;28;20224;-82
2021/05/18 06:47:46;;;;;;;19.05;10.32;;;11.90;99.90;;;;;;4971853;29;20214;-82
2021/05/18 06:52:58;;;;;;;10.20;8.48;;;12.50;99.90;;;;;;4994811;28;20623;-81
2021/05/18 06:55:27;;;;;;;13.23;10.93;;;12.60;99.90;;;;;;5037067;28;20246;-80
2021/05/18 06:58:01;;;;;;;11.27;9.57;;;12.40;99.90;;;;;;5037625;28;20209;-80
2021/05/18 07:00:28;;;;;;;12.02;10.07;;;12.20;99.90;;;;;;5028298;28;20193;-81
2021/05/18 07:02:57;;;;;;;10.65;9.60;;;12.30;99.90;;;;;;5025233;28;20212;-80
2021/05/18 07:05:34;;;;;;;12.30;9.43;;;12.10;99.90;;;;;;5022654;28;20652;-81
2021/05/18 07:08:10;;;;;;;12.18;9.70;;;12.20;99.90;;;;;;5023124;28;20220;-81
2021/05/18 07:10:37;;;;;;;15.90;9.98;;;12.30;99.90;;;;;;5024587;28;20223;-80
2021/05/18 07:13:04;;;;;;;12.60;8.85;;;12.50;99.90;;;;;;5029897;28;20201;-81
2021/05/18 07:15:31;;;;;;;15.48;8.98;;;12.70;99.90;;;;;;5028471;28;20304;-80
2021/05/18 07:17:58;;;;;;;11.00;9.30;;;12.80;99.90;;;;;;5029378;28;20193;-81
2021/05/18 07:20:28;;;;;;;17.77;9.18;;;12.90;99.90;;;;;;5028636;28;20209;-81
2021/05/18 07:22:57;;;;;;;10.35;8.32;;;13.00;99.90;;;;;;5027631;28;20200;-81
2021/05/18 07:25:24;;;;;;;13.48;9.20;;;12.80;99.90;;;;;;5026516;28;20221;-81
2021/05/18 07:27:52;;;;;;;9.15;8.18;;;12.90;99.90;;;;;;5020937;28;20193;-80
2021/05/18 07:30:20;;;;;;;10.65;8.45;;;12.80;99.90;;;;;;5018701;28;20252;-79
2021/05/18 07:32:47;;;;;;;8.43;7.63;;;12.60;99.90;;;;;;5018802;28;20193;-80
2021/05/18 07:35:14;;;;;;;9.88;7.53;;;12.80;99.90;;;;;;5016439;28;20343;-79
2021/05/18 07:37:42;;;;;;;11.60;7.47;;;13.00;99.90;;;;;;5019625;28;20200;-79
2021/05/18 07:40:09;;;;;;;9.18;7.53;;;13.10;99.90;;;;;;5017941;28;20276;-80
2021/05/18 07:42:36;;;;;;;7.35;6.65;;;13.20;99.90;;;;;;5022619;28;20193;-79
2021/05/18 07:45:03;;;;;;;7.50;6.80;;;13.20;99.90;;;;;;5025090;28;20220;-80
2021/05/18 07:47:35;;;;;;;6.70;5.90;;;13.20;99.90;;;;;;5012076;28;20193;-80
2021/05/18 07:50:04;;;;;;;10.25;6.93;;;13.30;99.90;;;;;;5025502;28;20251;-79
2021/05/18 08:01:01;;;;;;;8.00;5.38;;;14.10;99.90;;;;;;5022979;28;20189;-80
2021/05/18 08:06:13;;;;;;;6.78;4.53;;;13.70;99.90;;;;;;5000541;28;20213;-79
2021/05/18 08:08:40;;;;;;;4.35;3.75;;;13.60;99.90;;;;;;4999104;28;20205;-80
2021/05/18 08:11:09;;;;;;;4.18;3.75;;;13.40;99.90;;;;;;5030539;28;20220;-79
2021/05/18 08:13:36;;;;;;;4.65;3.90;;;13.20;99.90;;;;;;5012127;28;20239;-79
2021/05/18 08:20:01;;;;;;;5.32;4.72;;;13.40;99.90;;;;;;5002038;28;20192;-80
2021/05/18 09:49:52;;;;;;;5.80;5.05;;;15.40;99.90;;;;;;5006412;28;20205;-81
2021/05/18 10:34:54;;;;;;;4.70;4.28;;;16.60;99.90;;;;;;4991109;28;20280;-80
2021/05/18 10:37:31;;;;;;;5.47;4.97;;;16.40;99.90;;;;;;5001447;28;20213;-80
2021/05/18 10:40:34;;;;;;;9.23;4.93;;;16.20;99.90;;;;;;5013785;28;20209;-79
2021/05/18 10:43:18;;;;;;;10.18;6.95;;;15.80;99.90;;;;;;5008497;28;20197;-81
2021/05/18 10:46:05;;;;;;;8.20;5.68;;;15.80;99.90;;;;;;5008328;28;20252;-80
2021/05/18 10:49:00;;;;;;;9.88;6.72;;;15.70;99.90;;;;;;4994084;28;20220;-80
2021/05/18 10:51:46;;;;;;;5.63;4.78;;;15.70;99.90;;;;;;5010905;28;20228;-81
2021/05/18 10:54:18;;;;;;;5.50;4.93;;;15.90;99.90;;;;;;5010201;28;20256;-80
2021/05/18 10:57:26;;;;;;;5.32;4.85;;;16.30;99.90;;;;;;5009690;28;20248;-81
2021/05/18 11:00:08;;;;;;;5.30;4.80;;;16.50;99.90;;;;;;5005250;28;20228;-81
2021/05/18 11:02:37;;;;;;;4.97;4.53;;;16.90;99.90;;;;;;5009915;28;20225;-80
2021/05/18 11:05:08;;;;;;;4.80;4.20;;;17.50;99.90;;;;;;5009123;28;20683;-81
2021/05/18 11:07:36;;;;;;;4.28;3.97;;;17.90;99.90;;;;;;5008725;28;20700;-80
2021/05/18 11:10:07;;;;;;;4.00;3.63;;;17.70;99.90;;;;;;4997817;28;20205;-81
2021/05/18 11:12:35;;;;;;;3.63;3.33;;;17.80;99.90;;;;;;5009975;28;21456;-81
2021/05/18 11:15:14;;;;;;;3.60;3.20;;;18.30;99.90;;;;;;5009990;28;20217;-81
2021/05/18 11:17:46;;;;;;;3.83;3.47;;;18.80;99.90;;;;;;5009037;28;20205;-80
2021/05/18 11:20:23;;;;;;;5.60;5.10;;;18.80;99.90;;;;;;5008859;28;20202;-81
2021/05/18 11:25:49;;;;;;;8.55;5.38;;;18.70;99.90;;;;;;5007167;28;20696;-80
2021/05/18 11:28:19;;;;;;;10.93;6.13;;;18.50;99.90;;;;;;5004001;28;20216;-80
2021/05/18 11:30:49;;;;;;;5.93;5.35;;;17.80;99.90;;;;;;4999785;28;20217;-80
2021/05/18 11:33:16;;;;;;;5.60;5.10;;;17.50;99.90;;;;;;5007476;28;20227;-81
2021/05/18 11:35:44;;;;;;;5.05;4.22;;;17.50;99.90;;;;;;5006875;28;20232;-81
2021/05/18 11:38:14;;;;;;;5.63;4.20;;;17.50;99.90;;;;;;4993705;28;20217;-80
2021/05/18 11:40:56;;;;;;;3.50;3.20;;;17.80;99.90;;;;;;4995423;28;20205;-81
2021/05/18 11:43:35;;;;;;;4.25;3.92;;;18.40;99.90;;;;;;5001805;28;20198;-81
2021/05/18 11:46:17;;;;;;;4.35;3.60;;;18.60;99.90;;;;;;5004084;28;20302;-81
2021/05/18 11:48:54;;;;;;;4.65;3.80;;;18.00;99.90;;;;;;5006624;28;20261;-80
2021/05/18 11:51:24;;;;;;;6.10;3.70;;;18.00;99.90;;;;;;5005705;28;20263;-80
2021/05/18 11:53:53;;;;;;;4.65;4.20;;;17.90;99.90;;;;;;4983435;28;20293;-81
2021/05/18 11:56:34;;;;;;;4.97;3.85;;;18.10;99.90;;;;;;5007775;28;20220;-81
2021/05/18 11:59:19;;;;;;;5.25;3.65;;;18.40;99.90;;;;;;4999853;28;20201;-81
2021/05/18 12:01:56;;;;;;;4.43;4.00;;;18.80;99.90;;;;;;5008143;28;20257;-81
2021/05/18 12:04:24;;;;;;;6.18;5.60;;;19.40;99.90;;;;;;4991007;28;20232;-81
2021/05/18 12:06:56;;;;;;;5.82;3.67;;;18.50;99.90;;;;;;5001578;28;20208;-81
2021/05/18 12:09:23;;;;;;;4.28;3.20;;;17.80;99.90;;;;;;5001805;28;20273;-81
2021/05/18 12:12:04;;;;;;;4.70;3.85;;;17.40;99.90;;;;;;5005997;28;20226;-81
2021/05/18 12:14:43;;;;;;;5.63;3.72;;;17.30;99.90;;;;;;5006489;28;20263;-80
2021/05/18 12:17:11;;;;;;;4.78;3.10;;;17.70;99.90;;;;;;5008166;28;20197;-81
2021/05/18 12:19:38;;;;;;;4.45;3.80;;;18.20;99.90;;;;;;5006149;28;20201;-80
2021/05/18 12:22:08;;;;;;;3.78;3.47;;;17.80;99.90;;;;;;5005591;28;20205;-80
2021/05/18 12:24:39;;;;;;;5.13;3.40;;;17.60;99.90;;;;;;5002406;28;20232;-81
2021/05/18 12:29:53;;;;;;;4.00;3.60;;;17.90;99.90;;;;;;4996838;28;20197;-80
2021/05/18 12:32:23;;;;;;;4.00;3.60;;;17.40;99.90;;;;;;5006335;28;20280;-81
2021/05/18 12:34:51;;;;;;;4.05;3.53;;;17.30;99.90;;;;;;5007486;28;20726;-81
2021/05/18 12:37:32;;;;;;;6.88;4.75;;;17.50;99.90;;;;;;5006607;28;20213;-80
2021/05/18 12:39:59;;;;;;;5.78;3.85;;;17.40;99.90;;;;;;5006423;28;20689;-81
2021/05/18 12:42:27;;;;;;;4.20;3.35;;;17.60;99.90;;;;;;4988733;28;20235;-81
2021/05/18 12:44:56;;;;;;;3.65;3.22;;;17.60;99.90;;;;;;5013011;28;20225;-81
2021/05/18 12:47:31;;;;;;;3.22;2.50;;;17.10;99.90;;;;;;4987193;28;20630;-81
2021/05/18 12:49:58;;;;;;;4.07;3.22;;;17.10;99.90;;;;;;4980849;28;20205;-81
2021/05/18 12:52:34;;;;;;;6.45;4.80;;;16.90;99.90;;;;;;5003714;28;20201;-80
2021/05/18 12:55:01;;;;;;;4.50;4.03;;;17.00;99.90;;;;;;5002130;28;20252;-81
2021/05/18 12:57:30;;;;;;;7.03;4.38;;;16.80;99.90;;;;;;5004016;28;20644;-81
2021/05/18 13:00:07;;;;;;;5.95;4.75;;;16.70;99.90;;;;;;5008393;28;20201;-81
2021/05/18 13:02:38;;;;;;;5.47;4.20;;;16.90;99.90;;;;;;5018860;28;20247;-81
2021/05/18 13:05:17;;;;;;;5.28;4.32;;;16.90;99.90;;;;;;4996130;28;20240;-81
2021/05/18 13:08:09;;;;;;;4.53;4.10;;;16.50;99.90;;;;;;5001417;28;20201;-80
2021/05/18 13:10:47;;;;;;;5.85;4.28;;;16.50;99.90;;;;;;5015321;28;20252;-79
2021/05/18 13:13:13;;;;;;;6.10;4.20;;;16.50;99.90;;;;;;5015881;28;20185;-79
2021/05/18 13:15:40;;;;;;;5.35;4.72;;;16.30;99.90;;;;;;5074863;22;20652;-39
2021/05/18 13:18:10;;;;;;;5.85;4.53;;;16.30;99.90;;;;;;5032025;28;20212;-37
2021/05/18 13:20:43;;;;;;;6.05;5.15;;;16.20;99.90;;;;;;5030008;28;20215;-37
2021/05/18 13:23:16;;;;;;;5.70;4.97;;;16.00;99.90;;;;;;5042106;28;20250;-39
2021/05/18 13:28:27;;;;;;;4.68;4.00;;;15.80;99.90;;;;;;5055048;22;20234;-37
2021/05/18 13:30:54;;;;;;;6.18;4.85;;;15.60;99.90;;;;;;5042836;28;20212;-37
2021/05/18 13:33:22;;;;;;;4.93;4.50;;;15.40;99.90;;;;;;5045653;28;20215;-36
2021/05/18 13:35:48;;;;;;;7.95;4.57;;;15.60;99.90;;;;;;5036426;28;20413;-36
2021/05/18 13:38:15;;;;;;;7.00;4.55;;;15.50;99.90;;;;;;5030200;28;20255;-37
2021/05/18 13:40:41;;;;;;;8.52;5.55;;;15.20;99.90;;;;;;5033726;28;20196;-36
2021/05/18 13:43:09;;;;;;;7.35;5.65;;;14.90;99.90;;;;;;5037153;28;20191;-37
2021/05/18 13:45:36;;;;;;;6.60;5.90;;;14.50;99.90;;;;;;5049410;28;20618;-36
2021/05/18 13:48:05;;;;;;;8.25;4.78;;;14.10;99.90;;;;;;5049592;28;20255;-36
2021/05/18 13:50:33;;;;;;;9.68;5.45;;;13.80;99.90;;;;;;5037565;28;20207;-36
2021/05/18 13:53:00;;;;;;;5.78;5.25;;;13.70;99.90;;;;;;5037050;28;20188;-37
2021/05/18 13:55:27;;;;;;;5.88;5.35;;;13.50;99.90;;;;;;5042648;28;20622;-37
2021/05/18 13:57:54;;;;;;;9.52;6.18;;;13.50;99.90;;;;;;5048147;28;20701;-36
2021/05/18 14:00:21;;;;;;;9.32;5.70;;;13.50;99.90;;;;;;5040160;28;20264;-37
2021/05/18 14:02:49;;;;;;;6.72;6.13;;;13.50;99.90;;;;;;5041183;28;20325;-36
2021/05/18 14:05:18;;;;;;;7.10;6.40;;;13.70;99.90;;;;;;5044860;28;20196;-36
2021/05/18 14:08:22;;;;;;;6.07;5.38;;;13.70;99.90;;;;;;5033014;28;20220;-37
2021/05/18 14:10:52;;;;;;;8.60;5.40;;;13.60;99.90;;;;;;5031986;28;20212;-37
2021/05/18 14:13:21;;;;;;;6.68;5.50;;;13.70;99.90;;;;;;5037853;28;20453;-37
2021/05/18 14:15:49;;;;;;;8.05;6.10;;;13.80;99.90;;;;;;5044798;28;20608;-37
2021/05/18 14:18:16;;;;;;;5.68;4.93;;;13.60;99.90;;;;;;5050117;28;20215;-37
2021/05/18 14:20:43;;;;;;;7.50;6.32;;;13.70;99.90;;;;;;5041046;28;20188;-37
2021/05/18 14:23:11;;;;;;;5.55;4.50;;;13.90;99.90;;;;;;5034258;28;20196;-37
2021/05/18 14:25:39;;;;;;;4.88;4.47;;;14.20;99.90;;;;;;5040457;28;20202;-36
2021/05/18 14:28:07;;;;;;;4.30;3.97;;;14.20;99.90;;;;;;5043581;28;21541;-36
2021/05/18 14:30:35;;;;;;;5.43;4.47;;;13.90;99.90;;;;;;5046632;28;20211;-37
2021/05/18 14:33:02;;;;;;;5.10;4.03;;;14.00;99.90;;;;;;5041823;28;20645;-37
2021/05/18 14:35:29;;;;;;;4.88;4.47;;;14.00;99.90;;;;;;5052063;28;20541;-38
2021/05/18 14:38:03;;;;;;;6.97;3.88;;;14.20;99.90;;;;;;5034087;28;20250;-37
2021/05/18 14:46:07;;;;;;;4.82;3.95;;;14.00;99.90;;;;;;5042878;28;20192;-38
2021/05/18 14:54:19;;;;;;;6.38;5.70;;;13.30;99.90;;;;;;5038787;28;20350;-38
2021/05/18 14:56:47;;;;;;;6.22;5.70;;;13.20;99.90;;;;;;5043065;28;20215;-38
2021/05/18 14:59:13;;;;;;;9.35;6.80;;;13.10;99.90;;;;;;5033778;28;20275;-37
2021/05/18 15:01:40;;;;;;;8.00;7.20;;;13.00;99.90;;;;;;5043370;28;20232;-38
2021/05/18 15:04:07;;;;;;;8.55;7.65;;;13.20;99.90;;;;;;5046830;28;20707;-38
2021/05/18 15:06:34;;;;;;;7.88;7.07;;;13.40;99.90;;;;;;5061840;22;20353;-80
2021/05/18 15:09:00;;;;;;;10.05;7.40;;;13.60;99.90;;;;;;5066648;28;20294;-78
2021/05/18 15:11:27;;;;;;;7.47;6.80;;;13.60;99.90;;;;;;5042753;28;20511;-78
2021/05/18 15:13:55;;;;;;;6.55;6.03;;;13.70;99.90;;;;;;5056456;28;20196;-78
2021/05/18 15:16:21;;;;;;;6.50;5.57;;;14.00;99.90;;;;;;5079708;28;20209;-78
2021/05/18 15:18:51;;;;;;;6.25;5.65;;;14.30;99.90;;;;;;5082780;28;20194;-78
2021/05/18 15:21:18;;;;;;;6.88;4.90;;;14.60;99.90;;;;;;5084922;28;20206;-78
2021/05/18 15:23:45;;;;;;;4.63;4.18;;;15.00;99.90;;;;;;5066775;28;20213;-78
2021/05/18 15:26:12;;;;;;;5.60;4.53;;;15.10;99.90;;;;;;5084372;28;20198;-78
2021/05/18 15:28:43;;;;;;;10.98;4.68;;;14.90;99.90;;;;;;5082284;28;20202;-78
2021/05/18 15:31:11;;;;;;;5.07;4.55;;;14.60;99.90;;;;;;5083819;28;20301;-79
2021/05/18 15:33:37;;;;;;;7.50;5.93;;;14.40;99.90;;;;;;5058605;28;20202;-78
2021/05/18 15:36:05;;;;;;;8.88;5.78;;;14.30;99.90;;;;;;5064127;28;20199;-78
2021/05/18 15:38:37;;;;;;;6.43;5.80;;;14.60;99.90;;;;;;5064290;28;20195;-78
2021/05/18 15:41:07;;;;;;;6.45;5.85;;;14.40;99.90;;;;;;5044869;28;20192;-79
2021/05/18 15:43:34;;;;;;;5.22;4.72;;;14.20;99.90;;;;;;5062920;28;20652;-78
2021/05/18 15:46:02;;;;;;;6.20;5.60;;;14.00;99.90;;;;;;5062273;28;20254;-78
2021/05/18 15:48:30;;;;;;;9.25;5.60;;;14.00;99.90;;;;;;5066314;28;20566;-78
2021/05/18 15:50:57;;;;;;;6.80;6.20;;;13.90;99.90;;;;;;5074193;28;20834;-78
2021/05/18 15:53:24;;;;;;;8.15;7.07;;;13.80;99.90;;;;;;5051067;28;20206;-79
2021/05/18 15:55:50;;;;;;;7.55;6.93;;;13.80;99.90;;;;;;5066404;28;20223;-78
2021/05/18 15:58:17;;;;;;;7.72;7.03;;;13.90;99.90;;;;;;5054063;28;20185;-79
2021/05/18 16:00:47;;;;;;;8.65;7.85;;;13.80;99.90;;;;;;5072376;28;20206;-78
2021/05/18 16:03:16;;;;;;;10.07;7.57;;;13.80;99.90;;;;;;5072715;28;20215;-78
2021/05/18 16:05:44;;;;;;;9.73;6.55;;;13.80;99.90;;;;;;5068688;28;20227;-79
2021/05/18 16:11:04;;;;;;;11.07;7.10;;;13.70;99.90;;;;;;5064693;28;20655;-79
2021/05/18 16:13:31;;;;;;;9.20;8.23;;;13.70;99.90;;;;;;5064516;28;20198;-78
2021/05/18 16:16:04;;;;;;;10.82;7.32;;;13.60;99.90;;;;;;5065453;28;20215;-79
2021/05/18 16:18:30;;;;;;;10.52;7.97;;;13.40;99.90;;;;;;5063334;28;20210;-78
2021/05/18 16:20:58;;;;;;;8.27;7.45;;;13.30;99.90;;;;;;5066796;28;20210;-79
2021/05/18 16:23:26;;;;;;;8.30;6.90;;;13.50;99.90;;;;;;5071236;28;20198;-79
2021/05/18 16:25:54;;;;;;;15.77;10.65;;;13.20;99.90;;;;;;5090063;28;20554;-78
2021/05/18 16:28:21;;;;;;;7.22;6.53;;;13.40;99.90;;;;;;5091404;28;20197;-79
2021/05/18 16:30:49;;;;;;;7.82;6.97;;;13.40;99.90;;;;;;5086411;28;20230;-79
2021/05/18 16:33:15;;;;;;;7.82;7.03;;;13.00;99.90;;;;;;5084777;28;20225;-79
2021/05/18 16:35:42;;;;;;;7.72;6.85;;;12.90;99.90;;;;;;5084312;28;20214;-79
2021/05/18 16:38:10;;;;;;;6.72;5.38;;;12.90;99.90;;;;;;5087391;28;20206;-79
2021/05/18 16:40:37;;;;;;;9.00;5.80;;;12.90;99.90;;;;;;5071439;28;20202;-79
2021/05/18 16:43:04;;;;;;;9.02;5.97;;;13.00;99.90;;;;;;5069648;28;20234;-80
2021/05/18 16:45:31;;;;;;;11.00;5.90;;;13.00;99.90;;;;;;5054450;28;20258;-79
2021/05/18 16:47:58;;;;;;;8.70;4.55;;;13.20;99.90;;;;;;5068949;28;20214;-80
2021/05/18 16:50:25;;;;;;;6.22;4.75;;;12.90;99.90;;;;;;5070172;28;20262;-79
2021/05/18 16:52:51;;;;;;;5.40;4.90;;;12.80;99.90;;;;;;5068924;28;20199;-79
2021/05/18 16:55:20;;;;;;;7.40;4.20;;;13.00;99.90;;;;;;5069134;28;20223;-79
2021/05/18 16:57:46;;;;;;;3.55;3.25;;;12.90;99.90;;;;;;5056747;28;20203;-79
2021/05/18 17:00:14;;;;;;;3.22;2.92;;;12.90;99.90;;;;;;5071499;28;20203;-79
2021/05/18 17:02:41;;;;;;;3.63;2.95;;;12.90;99.90;;;;;;5070352;28;20203;-79
2021/05/18 17:05:09;;;;;;;2.72;2.53;;;12.90;99.90;;;;;;5066370;28;20295;-79
2021/05/18 17:07:36;;;;;;;3.83;2.85;;;13.10;99.90;;;;;;5076950;28;20198;-79
2021/05/18 17:10:04;;;;;;;2.78;2.58;;;13.20;99.90;;;;;;5073830;28;20225;-79
2021/05/18 17:12:31;;;;;;;2.45;2.25;;;14.00;99.90;;;;;;5076803;28;20218;-81
2021/05/18 17:14:58;;;;;;;3.90;2.35;;;14.30;99.90;;;;;;5068453;28;20314;-81
2021/05/18 17:17:27;;;;;;;2.53;2.28;;;14.90;99.90;;;;;;5078178;28;20257;-81
2021/05/18 17:20:41;;;;;;;5.00;2.90;;;15.20;99.90;;;;;;5065733;28;20250;-81
2021/05/18 17:23:18;;;;;;;3.35;2.88;;;15.20;99.90;;;;;;5061144;28;20202;-81
2021/05/18 17:25:45;;;;;;;2.83;2.63;;;14.60;99.90;;;;;;5067010;28;20640;-81